sensor_id;sensor_type;location;lat;lon;timestamp;P1;durP1;ratioP1;P2;durP2;ratioP2
2462;SDS011;1243;54.298;10.172;2024-03-22T00:01:50;17.27;;;12.77;;
2462;SDS011;1243;54.298;10.172;2024-03-22T00:04:16;21.17;;;14.20;;
2462;SDS011;1243;54.298;10.172;2024-03-22T00:06:42;18.07;;;12.67;;
2462;SDS011;1243;54.298;10.172;2024-03-22T00:09:10;19.27;;;12.63;;
2462;SDS011;1243;54.298;10.172;2024-03-22T00:11:38;19.80;;;13.40;;
2462;SDS011;1243;54.298;10.172;2024-03-22T00:14:05;24.40;;;13.60;;
2462;SDS011;1243;54.298;10.172;2024-03-22T00:16:31;18.70;;;13.97;;
2462;SDS011;1243;54.298;10.172;2024-03-22T00:18:59;18.70;;;13.60;;
2462;SDS011;1243;54.298;10.172;2024-03-22T00:21:24;21.13;;;14.17;;
2462;SDS011;1243;54.298;10.172;2024-03-22T00:23:50;25.10;;;13.37;;
2462;SDS011;1243;54.298;10.172;2024-03-22T00:26:16;18.10;;;12.53;;
2462;SDS011;1243;54.298;10.172;2024-03-22T00:28:42;30.90;;;14.93;;
2462;SDS011;1243;54.298;10.172;2024-03-22T00:31:08;20.10;;;13.20;;
2462;SDS011;1243;54.298;10.172;2024-03-22T00:33:34;17.57;;;12.37;;
2462;SDS011;1243;54.298;10.172;2024-03-22T00:36:01;21.00;;;13.17;;
2462;SDS011;1243;54.298;10.172;2024-03-22T00:38:27;19.40;;;13.80;;
2462;SDS011;1243;54.298;10.172;2024-03-22T00:40:52;21.27;;;14.40;;
2462;SDS011;1243;54.298;10.172;2024-03-22T00:43:20;20.23;;;13.70;;
2462;SDS011;1243;54.298;10.172;2024-03-22T00:45:46;25.87;;;13.70;;
2462;SDS011;1243;54.298;10.172;2024-03-22T00:48:13;19.80;;;13.70;;
2462;SDS011;1243;54.298;10.172;2024-03-22T00:50:39;18.40;;;14.57;;
2462;SDS011;1243;54.298;10.172;2024-03-22T00:53:06;22.70;;;13.23;;
2462;SDS011;1243;54.298;10.172;2024-03-22T00:55:33;26.27;;;15.90;;
2462;SDS011;1243;54.298;10.172;2024-03-22T00:58:00;28.07;;;14.67;;
2462;SDS011;1243;54.298;10.172;2024-03-22T01:00:26;22.83;;;14.30;;
2462;SDS011;1243;54.298;10.172;2024-03-22T01:02:51;24.70;;;15.37;;
2462;SDS011;1243;54.298;10.172;2024-03-22T01:05:17;24.30;;;14.60;;
2462;SDS011;1243;54.298;10.172;2024-03-22T01:07:43;21.07;;;15.67;;
2462;SDS011;1243;54.298;10.172;2024-03-22T01:10:09;21.80;;;15.50;;
2462;SDS011;1243;54.298;10.172;2024-03-22T01:12:36;21.20;;;15.63;;
2462;SDS011;1243;54.298;10.172;2024-03-22T01:15:03;22.20;;;15.40;;
2462;SDS011;1243;54.298;10.172;2024-03-22T01:17:29;20.17;;;14.80;;
2462;SDS011;1243;54.298;10.172;2024-03-22T01:19:55;30.43;;;16.70;;
2462;SDS011;1243;54.298;10.172;2024-03-22T01:22:22;23.70;;;15.40;;
2462;SDS011;1243;54.298;10.172;2024-03-22T01:24:48;22.43;;;15.10;;
2462;SDS011;1243;54.298;10.172;2024-03-22T01:27:13;24.27;;;17.23;;
2462;SDS011;1243;54.298;10.172;2024-03-22T01:29:39;22.23;;;15.03;;
2462;SDS011;1243;54.298;10.172;2024-03-22T01:32:05;22.83;;;16.40;;
2462;SDS011;1243;54.298;10.172;2024-03-22T01:34:31;30.47;;;17.80;;
2462;SDS011;1243;54.298;10.172;2024-03-22T01:36:56;23.47;;;16.20;;
2462;SDS011;1243;54.298;10.172;2024-03-22T01:39:23;26.60;;;16.20;;
2462;SDS011;1243;54.298;10.172;2024-03-22T01:41:49;24.60;;;15.50;;
2462;SDS011;1243;54.298;10.172;2024-03-22T01:44:16;26.07;;;17.17;;
2462;SDS011;1243;54.298;10.172;2024-03-22T01:46:44;26.90;;;17.67;;
2462;SDS011;1243;54.298;10.172;2024-03-22T01:49:14;24.53;;;16.67;;
2462;SDS011;1243;54.298;10.172;2024-03-22T01:51:41;22.50;;;15.53;;
2462;SDS011;1243;54.298;10.172;2024-03-22T01:54:11;20.90;;;15.73;;
2462;SDS011;1243;54.298;10.172;2024-03-22T01:56:36;29.83;;;17.63;;
2462;SDS011;1243;54.298;10.172;2024-03-22T01:59:04;32.77;;;17.93;;
2462;SDS011;1243;54.298;10.172;2024-03-22T02:01:30;27.10;;;18.23;;
2462;SDS011;1243;54.298;10.172;2024-03-22T02:03:56;29.40;;;18.97;;
2462;SDS011;1243;54.298;10.172;2024-03-22T02:06:22;28.10;;;18.70;;
2462;SDS011;1243;54.298;10.172;2024-03-22T02:08:48;27.97;;;19.80;;
2462;SDS011;1243;54.298;10.172;2024-03-22T02:11:14;29.63;;;19.87;;
2462;SDS011;1243;54.298;10.172;2024-03-22T02:13:39;29.80;;;20.20;;
2462;SDS011;1243;54.298;10.172;2024-03-22T02:16:05;32.00;;;20.83;;
2462;SDS011;1243;54.298;10.172;2024-03-22T02:18:32;31.20;;;20.70;;
2462;SDS011;1243;54.298;10.172;2024-03-22T02:20:57;33.33;;;20.23;;
2462;SDS011;1243;54.298;10.172;2024-03-22T02:23:36;34.93;;;19.93;;
2462;SDS011;1243;54.298;10.172;2024-03-22T02:26:03;32.23;;;20.20;;
2462;SDS011;1243;54.298;10.172;2024-03-22T02:28:30;40.00;;;20.10;;
2462;SDS011;1243;54.298;10.172;2024-03-22T02:30:57;33.93;;;21.43;;
2462;SDS011;1243;54.298;10.172;2024-03-22T02:33:24;32.13;;;20.43;;
2462;SDS011;1243;54.298;10.172;2024-03-22T02:35:50;28.83;;;18.97;;
2462;SDS011;1243;54.298;10.172;2024-03-22T02:38:16;34.60;;;21.13;;
2462;SDS011;1243;54.298;10.172;2024-03-22T02:40:42;36.13;;;20.53;;
2462;SDS011;1243;54.298;10.172;2024-03-22T02:43:09;31.60;;;21.23;;
2462;SDS011;1243;54.298;10.172;2024-03-22T02:45:35;31.63;;;20.93;;
2462;SDS011;1243;54.298;10.172;2024-03-22T02:48:00;30.37;;;21.73;;
2462;SDS011;1243;54.298;10.172;2024-03-22T02:50:26;33.70;;;21.60;;
2462;SDS011;1243;54.298;10.172;2024-03-22T02:52:52;34.90;;;21.60;;
2462;SDS011;1243;54.298;10.172;2024-03-22T02:55:17;29.97;;;19.57;;
2462;SDS011;1243;54.298;10.172;2024-03-22T02:57:43;38.83;;;21.70;;
2462;SDS011;1243;54.298;10.172;2024-03-22T03:00:09;36.57;;;24.20;;
2462;SDS011;1243;54.298;10.172;2024-03-22T03:02:35;40.37;;;21.70;;
2462;SDS011;1243;54.298;10.172;2024-03-22T03:05:01;37.80;;;21.70;;
2462;SDS011;1243;54.298;10.172;2024-03-22T03:07:28;40.10;;;24.20;;
2462;SDS011;1243;54.298;10.172;2024-03-22T03:09:54;39.80;;;23.30;;
2462;SDS011;1243;54.298;10.172;2024-03-22T03:12:20;35.07;;;22.83;;
2462;SDS011;1243;54.298;10.172;2024-03-22T03:14:46;36.23;;;23.10;;
2462;SDS011;1243;54.298;10.172;2024-03-22T03:17:13;38.13;;;24.20;;
2462;SDS011;1243;54.298;10.172;2024-03-22T03:19:38;34.57;;;24.27;;
2462;SDS011;1243;54.298;10.172;2024-03-22T03:22:04;33.37;;;21.53;;
2462;SDS011;1243;54.298;10.172;2024-03-22T03:24:30;28.33;;;20.77;;
2462;SDS011;1243;54.298;10.172;2024-03-22T03:26:56;33.20;;;22.67;;
2462;SDS011;1243;54.298;10.172;2024-03-22T03:29:21;37.50;;;23.43;;
2462;SDS011;1243;54.298;10.172;2024-03-22T03:31:47;42.10;;;25.07;;
2462;SDS011;1243;54.298;10.172;2024-03-22T03:34:14;34.93;;;22.40;;
2462;SDS011;1243;54.298;10.172;2024-03-22T03:36:40;38.13;;;22.93;;
2462;SDS011;1243;54.298;10.172;2024-03-22T03:39:05;35.07;;;24.47;;
2462;SDS011;1243;54.298;10.172;2024-03-22T03:41:31;36.53;;;23.33;;
2462;SDS011;1243;54.298;10.172;2024-03-22T03:43:56;37.10;;;24.87;;
2462;SDS011;1243;54.298;10.172;2024-03-22T03:46:23;35.90;;;23.73;;
2462;SDS011;1243;54.298;10.172;2024-03-22T03:48:49;33.63;;;23.90;;
2462;SDS011;1243;54.298;10.172;2024-03-22T03:51:15;38.03;;;25.33;;
2462;SDS011;1243;54.298;10.172;2024-03-22T03:53:40;43.40;;;25.70;;
2462;SDS011;1243;54.298;10.172;2024-03-22T03:56:06;42.93;;;26.10;;
2462;SDS011;1243;54.298;10.172;2024-03-22T03:58:32;40.27;;;24.83;;
2462;SDS011;1243;54.298;10.172;2024-03-22T04:00:57;41.27;;;26.00;;
2462;SDS011;1243;54.298;10.172;2024-03-22T04:03:23;40.00;;;24.33;;
2462;SDS011;1243;54.298;10.172;2024-03-22T04:05:58;36.87;;;25.20;;
2462;SDS011;1243;54.298;10.172;2024-03-22T04:08:25;35.90;;;24.60;;
2462;SDS011;1243;54.298;10.172;2024-03-22T04:10:54;37.87;;;25.60;;
2462;SDS011;1243;54.298;10.172;2024-03-22T04:13:22;45.27;;;25.67;;
2462;SDS011;1243;54.298;10.172;2024-03-22T04:15:51;42.07;;;24.57;;
2462;SDS011;1243;54.298;10.172;2024-03-22T04:18:17;35.13;;;24.33;;
2462;SDS011;1243;54.298;10.172;2024-03-22T04:20:52;47.60;;;24.53;;
2462;SDS011;1243;54.298;10.172;2024-03-22T04:23:22;33.90;;;23.97;;
2462;SDS011;1243;54.298;10.172;2024-03-22T04:25:54;42.30;;;26.90;;
2462;SDS011;1243;54.298;10.172;2024-03-22T04:28:21;40.97;;;25.77;;
2462;SDS011;1243;54.298;10.172;2024-03-22T04:31:03;37.60;;;24.73;;
2462;SDS011;1243;54.298;10.172;2024-03-22T04:33:30;47.87;;;26.77;;
2462;SDS011;1243;54.298;10.172;2024-03-22T04:35:57;48.07;;;27.23;;
2462;SDS011;1243;54.298;10.172;2024-03-22T04:38:25;41.67;;;25.30;;
2462;SDS011;1243;54.298;10.172;2024-03-22T04:40:51;47.07;;;28.93;;
2462;SDS011;1243;54.298;10.172;2024-03-22T04:43:17;41.90;;;27.60;;
2462;SDS011;1243;54.298;10.172;2024-03-22T04:45:43;42.37;;;26.57;;
2462;SDS011;1243;54.298;10.172;2024-03-22T04:48:09;39.23;;;26.03;;
2462;SDS011;1243;54.298;10.172;2024-03-22T04:50:37;41.00;;;25.63;;
2462;SDS011;1243;54.298;10.172;2024-03-22T04:53:03;44.97;;;27.30;;
2462;SDS011;1243;54.298;10.172;2024-03-22T04:55:28;40.73;;;26.63;;
2462;SDS011;1243;54.298;10.172;2024-03-22T04:57:54;43.90;;;27.00;;
2462;SDS011;1243;54.298;10.172;2024-03-22T05:00:20;43.63;;;28.00;;
2462;SDS011;1243;54.298;10.172;2024-03-22T05:02:46;40.23;;;26.93;;
2462;SDS011;1243;54.298;10.172;2024-03-22T05:05:12;38.83;;;25.43;;
2462;SDS011;1243;54.298;10.172;2024-03-22T05:07:38;44.47;;;26.27;;
2462;SDS011;1243;54.298;10.172;2024-03-22T05:10:04;42.63;;;26.43;;
2462;SDS011;1243;54.298;10.172;2024-03-22T05:12:30;43.83;;;27.73;;
2462;SDS011;1243;54.298;10.172;2024-03-22T05:14:56;43.00;;;28.57;;
2462;SDS011;1243;54.298;10.172;2024-03-22T05:17:22;43.87;;;27.37;;
2462;SDS011;1243;54.298;10.172;2024-03-22T05:19:47;51.53;;;29.07;;
2462;SDS011;1243;54.298;10.172;2024-03-22T05:22:13;52.50;;;29.50;;
2462;SDS011;1243;54.298;10.172;2024-03-22T05:24:39;47.80;;;28.50;;
2462;SDS011;1243;54.298;10.172;2024-03-22T05:27:04;49.40;;;29.87;;
2462;SDS011;1243;54.298;10.172;2024-03-22T05:29:30;48.20;;;29.50;;
2462;SDS011;1243;54.298;10.172;2024-03-22T05:31:56;48.53;;;27.17;;
2462;SDS011;1243;54.298;10.172;2024-03-22T05:34:22;49.70;;;28.23;;
2462;SDS011;1243;54.298;10.172;2024-03-22T05:36:48;45.57;;;27.20;;
2462;SDS011;1243;54.298;10.172;2024-03-22T05:39:14;49.03;;;29.43;;
2462;SDS011;1243;54.298;10.172;2024-03-22T05:41:40;49.70;;;28.93;;
2462;SDS011;1243;54.298;10.172;2024-03-22T05:44:05;44.97;;;30.07;;
2462;SDS011;1243;54.298;10.172;2024-03-22T05:46:31;45.40;;;30.13;;
2462;SDS011;1243;54.298;10.172;2024-03-22T05:48:57;53.37;;;33.10;;
2462;SDS011;1243;54.298;10.172;2024-03-22T05:51:23;56.03;;;30.73;;
2462;SDS011;1243;54.298;10.172;2024-03-22T05:53:49;48.93;;;30.23;;
2462;SDS011;1243;54.298;10.172;2024-03-22T05:56:15;47.03;;;30.77;;
2462;SDS011;1243;54.298;10.172;2024-03-22T05:58:41;51.07;;;31.30;;
2462;SDS011;1243;54.298;10.172;2024-03-22T06:01:07;45.33;;;30.33;;
2462;SDS011;1243;54.298;10.172;2024-03-22T06:03:33;51.10;;;29.07;;
2462;SDS011;1243;54.298;10.172;2024-03-22T06:05:59;49.17;;;31.43;;
2462;SDS011;1243;54.298;10.172;2024-03-22T06:08:28;48.13;;;30.23;;
2462;SDS011;1243;54.298;10.172;2024-03-22T06:10:54;51.00;;;31.33;;
2462;SDS011;1243;54.298;10.172;2024-03-22T06:13:24;60.47;;;34.07;;
2462;SDS011;1243;54.298;10.172;2024-03-22T06:15:49;50.57;;;30.00;;
2462;SDS011;1243;54.298;10.172;2024-03-22T06:18:16;54.37;;;31.23;;
2462;SDS011;1243;54.298;10.172;2024-03-22T06:20:41;45.47;;;31.33;;
2462;SDS011;1243;54.298;10.172;2024-03-22T06:23:08;45.63;;;31.00;;
2462;SDS011;1243;54.298;10.172;2024-03-22T06:25:34;51.97;;;31.90;;
2462;SDS011;1243;54.298;10.172;2024-03-22T06:28:00;46.90;;;32.60;;
2462;SDS011;1243;54.298;10.172;2024-03-22T06:30:26;50.33;;;31.90;;
2462;SDS011;1243;54.298;10.172;2024-03-22T06:32:55;45.40;;;30.90;;
2462;SDS011;1243;54.298;10.172;2024-03-22T06:35:20;50.23;;;30.57;;
2462;SDS011;1243;54.298;10.172;2024-03-22T06:37:47;48.70;;;31.80;;
2462;SDS011;1243;54.298;10.172;2024-03-22T06:40:13;52.23;;;29.63;;
2462;SDS011;1243;54.298;10.172;2024-03-22T06:42:40;50.40;;;30.60;;
2462;SDS011;1243;54.298;10.172;2024-03-22T06:45:06;45.80;;;30.73;;
2462;SDS011;1243;54.298;10.172;2024-03-22T06:47:32;51.73;;;31.60;;
2462;SDS011;1243;54.298;10.172;2024-03-22T06:49:58;57.20;;;29.20;;
2462;SDS011;1243;54.298;10.172;2024-03-22T06:52:24;52.07;;;32.60;;
2462;SDS011;1243;54.298;10.172;2024-03-22T06:54:49;53.13;;;29.10;;
2462;SDS011;1243;54.298;10.172;2024-03-22T06:57:15;46.13;;;29.13;;
2462;SDS011;1243;54.298;10.172;2024-03-22T06:59:41;41.47;;;26.17;;
2462;SDS011;1243;54.298;10.172;2024-03-22T07:02:06;52.10;;;30.00;;
2462;SDS011;1243;54.298;10.172;2024-03-22T07:04:34;45.53;;;28.10;;
2462;SDS011;1243;54.298;10.172;2024-03-22T07:07:00;46.60;;;30.03;;
2462;SDS011;1243;54.298;10.172;2024-03-22T07:09:25;46.53;;;27.63;;
2462;SDS011;1243;54.298;10.172;2024-03-22T07:11:53;44.77;;;29.10;;
2462;SDS011;1243;54.298;10.172;2024-03-22T07:14:19;38.83;;;26.40;;
2462;SDS011;1243;54.298;10.172;2024-03-22T07:16:45;42.77;;;27.20;;
2462;SDS011;1243;54.298;10.172;2024-03-22T07:19:11;45.20;;;29.57;;
2462;SDS011;1243;54.298;10.172;2024-03-22T07:21:37;42.60;;;29.00;;
2462;SDS011;1243;54.298;10.172;2024-03-22T07:24:04;53.13;;;29.20;;
2462;SDS011;1243;54.298;10.172;2024-03-22T07:26:29;43.90;;;27.50;;
2462;SDS011;1243;54.298;10.172;2024-03-22T07:28:55;45.50;;;27.37;;
2462;SDS011;1243;54.298;10.172;2024-03-22T07:31:21;46.23;;;28.73;;
2462;SDS011;1243;54.298;10.172;2024-03-22T07:33:47;47.07;;;28.47;;
2462;SDS011;1243;54.298;10.172;2024-03-22T07:36:15;42.37;;;27.50;;
2462;SDS011;1243;54.298;10.172;2024-03-22T07:38:41;40.57;;;27.27;;
2462;SDS011;1243;54.298;10.172;2024-03-22T07:41:07;47.17;;;28.33;;
2462;SDS011;1243;54.298;10.172;2024-03-22T07:43:32;47.03;;;29.80;;
2462;SDS011;1243;54.298;10.172;2024-03-22T07:45:58;47.30;;;25.80;;
2462;SDS011;1243;54.298;10.172;2024-03-22T07:48:24;40.87;;;26.87;;
2462;SDS011;1243;54.298;10.172;2024-03-22T07:50:56;42.00;;;28.30;;
2462;SDS011;1243;54.298;10.172;2024-03-22T07:53:23;43.80;;;27.23;;
2462;SDS011;1243;54.298;10.172;2024-03-22T07:55:48;43.17;;;27.10;;
2462;SDS011;1243;54.298;10.172;2024-03-22T07:58:14;41.73;;;27.50;;
2462;SDS011;1243;54.298;10.172;2024-03-22T08:00:40;40.97;;;24.63;;
2462;SDS011;1243;54.298;10.172;2024-03-22T08:03:05;45.93;;;28.97;;
2462;SDS011;1243;54.298;10.172;2024-03-22T08:05:32;44.20;;;28.07;;
2462;SDS011;1243;54.298;10.172;2024-03-22T08:07:57;43.17;;;28.20;;
2462;SDS011;1243;54.298;10.172;2024-03-22T08:10:23;46.90;;;29.90;;
2462;SDS011;1243;54.298;10.172;2024-03-22T08:12:49;40.07;;;24.03;;
2462;SDS011;1243;54.298;10.172;2024-03-22T08:15:14;45.63;;;25.80;;
2462;SDS011;1243;54.298;10.172;2024-03-22T08:17:40;45.57;;;28.00;;
2462;SDS011;1243;54.298;10.172;2024-03-22T08:20:06;42.00;;;25.60;;
2462;SDS011;1243;54.298;10.172;2024-03-22T08:22:32;48.20;;;29.20;;
2462;SDS011;1243;54.298;10.172;2024-03-22T08:24:58;40.40;;;27.10;;
2462;SDS011;1243;54.298;10.172;2024-03-22T08:27:23;40.43;;;25.10;;
2462;SDS011;1243;54.298;10.172;2024-03-22T08:29:49;38.57;;;25.03;;
2462;SDS011;1243;54.298;10.172;2024-03-22T08:32:15;35.20;;;23.60;;
2462;SDS011;1243;54.298;10.172;2024-03-22T08:34:41;32.03;;;22.00;;
2462;SDS011;1243;54.298;10.172;2024-03-22T08:37:06;40.43;;;24.53;;
2462;SDS011;1243;54.298;10.172;2024-03-22T08:39:32;30.97;;;21.17;;
2462;SDS011;1243;54.298;10.172;2024-03-22T08:41:58;37.70;;;21.80;;
2462;SDS011;1243;54.298;10.172;2024-03-22T08:44:23;28.23;;;17.80;;
2462;SDS011;1243;54.298;10.172;2024-03-22T08:46:49;30.73;;;20.03;;
2462;SDS011;1243;54.298;10.172;2024-03-22T08:49:15;28.03;;;20.30;;
2462;SDS011;1243;54.298;10.172;2024-03-22T08:51:41;26.07;;;17.50;;
2462;SDS011;1243;54.298;10.172;2024-03-22T08:54:06;22.40;;;15.67;;
2462;SDS011;1243;54.298;10.172;2024-03-22T08:56:32;21.93;;;15.33;;
2462;SDS011;1243;54.298;10.172;2024-03-22T08:58:58;19.27;;;13.50;;
2462;SDS011;1243;54.298;10.172;2024-03-22T09:01:24;18.50;;;13.10;;
2462;SDS011;1243;54.298;10.172;2024-03-22T09:03:50;13.80;;;11.03;;
2462;SDS011;1243;54.298;10.172;2024-03-22T09:06:16;15.57;;;10.53;;
2462;SDS011;1243;54.298;10.172;2024-03-22T09:08:41;11.87;;;9.40;;
2462;SDS011;1243;54.298;10.172;2024-03-22T09:11:07;11.43;;;9.37;;
2462;SDS011;1243;54.298;10.172;2024-03-22T09:13:33;14.00;;;9.47;;
2462;SDS011;1243;54.298;10.172;2024-03-22T09:16:00;14.83;;;11.13;;
2462;SDS011;1243;54.298;10.172;2024-03-22T09:18:26;12.80;;;10.00;;
2462;SDS011;1243;54.298;10.172;2024-03-22T09:20:52;8.93;;;8.03;;
2462;SDS011;1243;54.298;10.172;2024-03-22T09:23:19;9.80;;;8.83;;
2462;SDS011;1243;54.298;10.172;2024-03-22T09:25:45;11.97;;;8.50;;
2462;SDS011;1243;54.298;10.172;2024-03-22T09:28:12;8.63;;;7.73;;
2462;SDS011;1243;54.298;10.172;2024-03-22T09:30:39;8.37;;;7.23;;
2462;SDS011;1243;54.298;10.172;2024-03-22T09:33:07;11.20;;;8.03;;
2462;SDS011;1243;54.298;10.172;2024-03-22T09:35:34;9.17;;;8.13;;
2462;SDS011;1243;54.298;10.172;2024-03-22T09:38:00;12.33;;;7.63;;
2462;SDS011;1243;54.298;10.172;2024-03-22T09:40:26;8.50;;;7.60;;
2462;SDS011;1243;54.298;10.172;2024-03-22T09:42:52;9.37;;;7.27;;
2462;SDS011;1243;54.298;10.172;2024-03-22T09:45:19;8.03;;;6.50;;
2462;SDS011;1243;54.298;10.172;2024-03-22T09:47:45;8.23;;;6.47;;
2462;SDS011;1243;54.298;10.172;2024-03-22T09:50:13;6.57;;;5.97;;
2462;SDS011;1243;54.298;10.172;2024-03-22T09:52:40;8.60;;;6.37;;
2462;SDS011;1243;54.298;10.172;2024-03-22T09:55:07;6.80;;;5.90;;
2462;SDS011;1243;54.298;10.172;2024-03-22T09:57:37;8.07;;;7.27;;
2462;SDS011;1243;54.298;10.172;2024-03-22T10:00:06;7.00;;;6.30;;
2462;SDS011;1243;54.298;10.172;2024-03-22T10:02:33;7.40;;;6.67;;
2462;SDS011;1243;54.298;10.172;2024-03-22T10:04:59;7.77;;;7.03;;
2462;SDS011;1243;54.298;10.172;2024-03-22T10:07:27;7.93;;;7.13;;
2462;SDS011;1243;54.298;10.172;2024-03-22T10:09:57;4.60;;;4.20;;
2462;SDS011;1243;54.298;10.172;2024-03-22T10:12:23;10.03;;;8.03;;
2462;SDS011;1243;54.298;10.172;2024-03-22T10:14:52;8.17;;;7.37;;
2462;SDS011;1243;54.298;10.172;2024-03-22T10:17:18;7.77;;;7.07;;
2462;SDS011;1243;54.298;10.172;2024-03-22T10:19:44;10.37;;;6.90;;
2462;SDS011;1243;54.298;10.172;2024-03-22T10:22:10;13.40;;;7.80;;
2462;SDS011;1243;54.298;10.172;2024-03-22T10:24:36;7.00;;;6.27;;
2462;SDS011;1243;54.298;10.172;2024-03-22T10:27:01;10.97;;;7.23;;
2462;SDS011;1243;54.298;10.172;2024-03-22T10:29:27;10.20;;;6.83;;
2462;SDS011;1243;54.298;10.172;2024-03-22T10:31:54;9.60;;;6.90;;
2462;SDS011;1243;54.298;10.172;2024-03-22T10:34:20;8.50;;;7.20;;
2462;SDS011;1243;54.298;10.172;2024-03-22T10:36:47;7.43;;;5.83;;
2462;SDS011;1243;54.298;10.172;2024-03-22T10:39:15;6.83;;;6.13;;
2462;SDS011;1243;54.298;10.172;2024-03-22T10:41:45;9.50;;;7.03;;
2462;SDS011;1243;54.298;10.172;2024-03-22T10:44:12;9.77;;;8.20;;
2462;SDS011;1243;54.298;10.172;2024-03-22T10:46:38;7.40;;;6.50;;
2462;SDS011;1243;54.298;10.172;2024-03-22T10:49:08;8.73;;;7.40;;
2462;SDS011;1243;54.298;10.172;2024-03-22T10:51:37;7.33;;;6.53;;
2462;SDS011;1243;54.298;10.172;2024-03-22T10:54:03;10.17;;;8.33;;
2462;SDS011;1243;54.298;10.172;2024-03-22T10:56:30;12.00;;;9.10;;
2462;SDS011;1243;54.298;10.172;2024-03-22T10:58:56;8.83;;;6.60;;
2462;SDS011;1243;54.298;10.172;2024-03-22T11:01:22;8.73;;;7.20;;
2462;SDS011;1243;54.298;10.172;2024-03-22T11:03:48;13.70;;;7.97;;
2462;SDS011;1243;54.298;10.172;2024-03-22T11:06:17;9.50;;;7.00;;
2462;SDS011;1243;54.298;10.172;2024-03-22T11:08:50;8.83;;;7.03;;
2462;SDS011;1243;54.298;10.172;2024-03-22T11:11:17;9.80;;;8.20;;
2462;SDS011;1243;54.298;10.172;2024-03-22T11:13:47;7.00;;;6.07;;
2462;SDS011;1243;54.298;10.172;2024-03-22T11:16:15;8.30;;;7.53;;
2462;SDS011;1243;54.298;10.172;2024-03-22T11:18:42;7.73;;;6.93;;
2462;SDS011;1243;54.298;10.172;2024-03-22T11:21:08;8.40;;;6.73;;
2462;SDS011;1243;54.298;10.172;2024-03-22T11:23:34;7.47;;;6.77;;
2462;SDS011;1243;54.298;10.172;2024-03-22T11:26:02;7.10;;;6.50;;
2462;SDS011;1243;54.298;10.172;2024-03-22T11:28:29;10.07;;;6.00;;
2462;SDS011;1243;54.298;10.172;2024-03-22T11:30:55;6.83;;;6.20;;
2462;SDS011;1243;54.298;10.172;2024-03-22T11:33:21;11.13;;;4.90;;
2462;SDS011;1243;54.298;10.172;2024-03-22T11:35:47;6.23;;;5.40;;
2462;SDS011;1243;54.298;10.172;2024-03-22T11:38:14;6.30;;;5.80;;
2462;SDS011;1243;54.298;10.172;2024-03-22T11:40:41;7.23;;;6.50;;
2462;SDS011;1243;54.298;10.172;2024-03-22T11:43:08;6.00;;;5.40;;
2462;SDS011;1243;54.298;10.172;2024-03-22T11:45:34;6.93;;;6.33;;
2462;SDS011;1243;54.298;10.172;2024-03-22T11:48:02;7.33;;;6.10;;
2462;SDS011;1243;54.298;10.172;2024-03-22T11:50:28;7.40;;;6.67;;
2462;SDS011;1243;54.298;10.172;2024-03-22T11:52:54;5.60;;;5.10;;
2462;SDS011;1243;54.298;10.172;2024-03-22T11:55:21;6.33;;;5.77;;
2462;SDS011;1243;54.298;10.172;2024-03-22T11:57:50;6.87;;;5.83;;
2462;SDS011;1243;54.298;10.172;2024-03-22T12:00:17;5.30;;;4.60;;
2462;SDS011;1243;54.298;10.172;2024-03-22T12:02:44;5.47;;;4.40;;
2462;SDS011;1243;54.298;10.172;2024-03-22T12:05:10;6.93;;;4.80;;
2462;SDS011;1243;54.298;10.172;2024-03-22T12:07:36;6.20;;;5.70;;
2462;SDS011;1243;54.298;10.172;2024-03-22T12:10:02;11.50;;;7.93;;
2462;SDS011;1243;54.298;10.172;2024-03-22T12:12:28;17.93;;;8.63;;
2462;SDS011;1243;54.298;10.172;2024-03-22T12:14:55;14.60;;;10.60;;
2462;SDS011;1243;54.298;10.172;2024-03-22T12:17:21;17.87;;;14.57;;
2462;SDS011;1243;54.298;10.172;2024-03-22T12:19:46;23.77;;;13.50;;
2462;SDS011;1243;54.298;10.172;2024-03-22T12:22:12;14.10;;;10.70;;
2462;SDS011;1243;54.298;10.172;2024-03-22T12:24:38;11.40;;;8.80;;
2462;SDS011;1243;54.298;10.172;2024-03-22T12:27:04;11.13;;;9.00;;
2462;SDS011;1243;54.298;10.172;2024-03-22T12:29:33;8.00;;;6.40;;
2462;SDS011;1243;54.298;10.172;2024-03-22T12:31:59;10.23;;;7.13;;
2462;SDS011;1243;54.298;10.172;2024-03-22T12:34:31;6.30;;;5.33;;
2462;SDS011;1243;54.298;10.172;2024-03-22T12:36:58;11.80;;;5.90;;
2462;SDS011;1243;54.298;10.172;2024-03-22T12:39:25;7.93;;;4.90;;
2462;SDS011;1243;54.298;10.172;2024-03-22T12:41:50;6.20;;;5.10;;
2462;SDS011;1243;54.298;10.172;2024-03-22T12:44:17;4.87;;;4.47;;
2462;SDS011;1243;54.298;10.172;2024-03-22T12:46:43;8.43;;;4.60;;
2462;SDS011;1243;54.298;10.172;2024-03-22T12:49:10;6.20;;;4.13;;
2462;SDS011;1243;54.298;10.172;2024-03-22T12:51:36;4.33;;;4.03;;
2462;SDS011;1243;54.298;10.172;2024-03-22T12:54:02;5.13;;;4.03;;
2462;SDS011;1243;54.298;10.172;2024-03-22T12:56:28;6.47;;;4.90;;
2462;SDS011;1243;54.298;10.172;2024-03-22T12:58:55;9.83;;;5.60;;
2462;SDS011;1243;54.298;10.172;2024-03-22T13:01:21;8.07;;;4.97;;
2462;SDS011;1243;54.298;10.172;2024-03-22T13:03:47;6.70;;;4.50;;
2462;SDS011;1243;54.298;10.172;2024-03-22T13:06:12;5.27;;;4.50;;
2462;SDS011;1243;54.298;10.172;2024-03-22T13:08:38;13.03;;;6.30;;
2462;SDS011;1243;54.298;10.172;2024-03-22T13:11:04;15.23;;;5.83;;
2462;SDS011;1243;54.298;10.172;2024-03-22T13:13:30;12.30;;;5.50;;
2462;SDS011;1243;54.298;10.172;2024-03-22T13:15:58;7.20;;;4.80;;
2462;SDS011;1243;54.298;10.172;2024-03-22T13:18:27;8.10;;;4.60;;
2462;SDS011;1243;54.298;10.172;2024-03-22T13:20:53;10.50;;;5.17;;
2462;SDS011;1243;54.298;10.172;2024-03-22T13:23:19;10.80;;;4.67;;
2462;SDS011;1243;54.298;10.172;2024-03-22T13:25:44;9.63;;;4.63;;
2462;SDS011;1243;54.298;10.172;2024-03-22T13:28:10;20.30;;;6.83;;
2462;SDS011;1243;54.298;10.172;2024-03-22T13:30:36;16.53;;;4.47;;
2462;SDS011;1243;54.298;10.172;2024-03-22T13:33:02;9.43;;;4.57;;
2462;SDS011;1243;54.298;10.172;2024-03-22T13:35:28;7.63;;;4.20;;
2462;SDS011;1243;54.298;10.172;2024-03-22T13:37:54;21.10;;;4.70;;
2462;SDS011;1243;54.298;10.172;2024-03-22T13:40:20;11.63;;;4.97;;
2462;SDS011;1243;54.298;10.172;2024-03-22T13:42:46;11.20;;;4.80;;
2462;SDS011;1243;54.298;10.172;2024-03-22T13:45:12;16.67;;;4.70;;
2462;SDS011;1243;54.298;10.172;2024-03-22T13:47:37;11.93;;;4.90;;
2462;SDS011;1243;54.298;10.172;2024-03-22T13:50:06;13.40;;;5.57;;
2462;SDS011;1243;54.298;10.172;2024-03-22T13:52:35;11.90;;;4.90;;
2462;SDS011;1243;54.298;10.172;2024-03-22T13:55:01;13.43;;;5.33;;
2462;SDS011;1243;54.298;10.172;2024-03-22T13:57:27;14.87;;;5.00;;
2462;SDS011;1243;54.298;10.172;2024-03-22T13:59:53;14.00;;;5.10;;
2462;SDS011;1243;54.298;10.172;2024-03-22T14:02:19;13.67;;;4.93;;
2462;SDS011;1243;54.298;10.172;2024-03-22T14:04:45;14.07;;;5.30;;
2462;SDS011;1243;54.298;10.172;2024-03-22T14:07:11;13.40;;;6.37;;
2462;SDS011;1243;54.298;10.172;2024-03-22T14:09:36;23.37;;;5.23;;
2462;SDS011;1243;54.298;10.172;2024-03-22T14:12:02;17.83;;;6.50;;
2462;SDS011;1243;54.298;10.172;2024-03-22T14:14:28;16.87;;;4.27;;
2462;SDS011;1243;54.298;10.172;2024-03-22T14:16:54;20.27;;;5.33;;
2462;SDS011;1243;54.298;10.172;2024-03-22T14:19:20;12.50;;;5.57;;
2462;SDS011;1243;54.298;10.172;2024-03-22T14:21:46;15.63;;;6.67;;
2462;SDS011;1243;54.298;10.172;2024-03-22T14:24:12;19.73;;;5.67;;
2462;SDS011;1243;54.298;10.172;2024-03-22T14:26:38;22.50;;;6.50;;
2462;SDS011;1243;54.298;10.172;2024-03-22T14:29:10;19.60;;;5.33;;
2462;SDS011;1243;54.298;10.172;2024-03-22T14:31:37;15.07;;;5.17;;
2462;SDS011;1243;54.298;10.172;2024-03-22T14:34:03;14.73;;;7.90;;
2462;SDS011;1243;54.298;10.172;2024-03-22T14:36:32;19.00;;;5.63;;
2462;SDS011;1243;54.298;10.172;2024-03-22T14:38:59;24.87;;;5.50;;